Time,TemperatureF,DewpointF,PressureIn,WindDirection,WindDirectionDegrees,WindSpeedMPH,WindSpeedGustMPH,Humidity,HourlyPrecipIn,Conditions,Clouds,dailyrainin,SolarRadiationWatts/m^2,SoftwareType,DateUTC
2013-05-18 00:02:00,57.0,51.0,-100.00,SE,129,4.0,9.0,81,0.00,,,0.00,0.000000,,2013-05-18 05:02:00,
2013-05-18 00:10:00,56.0,52.0,-100.00,SE,134,4.0,10.0,85,0.00,,,0.00,0.000000,,2013-05-18 05:10:00,
2013-05-18 00:32:00,56.0,52.0,-100.00,SE,134,4.0,10.0,85,0.00,,,0.00,0.000000,,2013-05-18 05:32:00,
2013-05-18 00:42:00,56.0,52.0,-100.00,SE,134,4.0,10.0,85,0.00,,,0.00,0.000000,,2013-05-18 05:42:00,
2013-05-18 00:52:00,56.0,52.0,-100.00,SE,134,4.0,10.0,85,0.00,,,0.00,0.000000,,2013-05-18 05:52:00,
2013-05-18 01:02:00,56.0,52.0,-100.00,SE,134,4.0,10.0,85,0.00,,,0.00,0.000000,,2013-05-18 06:02:00,
2013-05-18 01:10:00,54.0,50.0,-100.00,SE,135,6.0,10.0,85,0.00,,,0.00,0.000000,,2013-05-18 06:10:00,
2013-05-18 01:42:00,54.0,50.0,-100.00,SE,135,6.0,10.0,85,0.00,,,0.00,0.000000,,2013-05-18 06:42:00,
2013-05-18 01:52:00,54.0,50.0,-100.00,SE,135,6.0,10.0,85,0.00,,,0.00,0.000000,,2013-05-18 06:52:00,
2013-05-18 02:01:00,54.0,50.0,-100.00,SE,135,6.0,10.0,85,0.00,,,0.00,0.000000,,2013-05-18 07:01:00,
2013-05-18 02:10:00,52.0,48.0,-100.00,SE,139,5.0,11.0,87,0.00,,,0.00,0.000000,,2013-05-18 07:10:00,
2013-05-18 02:32:00,52.0,48.0,-100.00,SE,139,5.0,11.0,87,0.00,,,0.00,0.000000,,2013-05-18 07:32:00,
2013-05-18 02:43:00,52.0,48.0,-100.00,SE,139,5.0,11.0,87,0.00,,,0.00,0.000000,,2013-05-18 07:43:00,
2013-05-18 02:52:00,52.0,48.0,-100.00,SE,139,5.0,11.0,87,0.00,,,0.00,0.000000,,2013-05-18 07:52:00,
2013-05-18 03:01:00,52.0,48.0,-100.00,SE,139,5.0,11.0,87,0.00,,,0.00,0.000000,,2013-05-18 08:01:00,
2013-05-18 03:10:00,51.0,48.0,-100.00,ESE,117,4.0,11.0,89,0.00,,,0.00,0.000000,,2013-05-18 08:10:00,
2013-05-18 03:42:00,51.0,48.0,-100.00,ESE,117,4.0,11.0,89,0.00,,,0.00,0.000000,,2013-05-18 08:42:00,
2013-05-18 03:52:00,51.0,48.0,-100.00,ESE,117,4.0,11.0,89,0.00,,,0.00,0.000000,,2013-05-18 08:52:00,
2013-05-18 04:02:00,51.0,48.0,-100.00,ESE,117,4.0,11.0,89,0.00,,,0.00,0.000000,,2013-05-18 09:02:00,
2013-05-18 04:10:00,51.0,47.0,-100.00,ESE,117,3.0,11.0,87,0.00,,,0.00,0.000000,,2013-05-18 09:10:00,
2013-05-18 04:43:00,51.0,47.0,-100.00,ESE,117,3.0,11.0,87,0.00,,,0.00,0.000000,,2013-05-18 09:43:00,
2013-05-18 04:53:00,51.0,47.0,-100.00,ESE,117,3.0,11.0,87,0.00,,,0.00,0.000000,,2013-05-18 09:53:00,
2013-05-18 05:03:00,51.0,47.0,-100.00,ESE,117,3.0,11.0,87,0.00,,,0.00,0.000000,,2013-05-18 10:03:00,
2013-05-18 05:10:00,51.0,48.0,-100.00,ESE,108,2.0,8.0,88,0.00,,,0.00,0.000000,,2013-05-18 10:10:00,
2013-05-18 05:33:00,51.0,48.0,-100.00,ESE,108,2.0,8.0,88,0.00,,,0.00,0.000000,,2013-05-18 10:33:00,
2013-05-18 05:42:00,51.0,48.0,-100.00,ESE,108,2.0,8.0,88,0.00,,,0.00,0.000000,,2013-05-18 10:42:00,
2013-05-18 05:53:00,51.0,48.0,-100.00,ESE,108,2.0,8.0,88,0.00,,,0.00,0.000000,,2013-05-18 10:53:00,
2013-05-18 06:03:00,51.0,48.0,-100.00,ESE,108,2.0,8.0,88,0.00,,,0.00,0.000000,,2013-05-18 11:03:00,
2013-05-18 06:10:00,50.0,48.0,-100.00,ESE,116,3.0,7.0,94,0.01,,,0.01,1.000000,,2013-05-18 11:10:00,
2013-05-18 06:33:00,50.0,48.0,-100.00,ESE,116,3.0,7.0,94,0.01,,,0.01,1.000000,,2013-05-18 11:33:00,
2013-05-18 06:42:00,50.0,48.0,-100.00,ESE,116,3.0,7.0,94,0.01,,,0.01,1.000000,,2013-05-18 11:42:00,
2013-05-18 06:52:00,50.0,48.0,-100.00,ESE,116,3.0,7.0,94,0.01,,,0.01,1.000000,,2013-05-18 11:52:00,
2013-05-18 07:02:00,50.0,48.0,-100.00,ESE,116,3.0,7.0,94,0.01,,,0.01,1.000000,,2013-05-18 12:02:00,
2013-05-18 07:10:00,50.0,48.0,-100.00,SE,124,3.0,7.0,93,0.02,,,0.03,17.000000,,2013-05-18 12:10:00,
2013-05-18 07:42:00,50.0,48.0,-100.00,SE,124,3.0,7.0,93,0.02,,,0.03,17.000000,,2013-05-18 12:42:00,
2013-05-18 07:52:00,50.0,48.0,-100.00,SE,124,3.0,7.0,93,0.02,,,0.03,17.000000,,2013-05-18 12:52:00,
2013-05-18 08:01:00,50.0,48.0,-100.00,SE,124,3.0,7.0,93,0.02,,,0.03,17.000000,,2013-05-18 13:01:00,
2013-05-18 08:10:00,50.0,49.0,-100.00,ESE,105,4.0,10.0,97,0.06,,,0.09,22.000000,,2013-05-18 13:10:00,
2013-05-18 08:33:00,50.0,49.0,-100.00,ESE,105,4.0,10.0,97,0.06,,,0.09,22.000000,,2013-05-18 13:33:00,
2013-05-18 08:43:00,50.0,49.0,-100.00,ESE,105,4.0,10.0,97,0.06,,,0.09,22.000000,,2013-05-18 13:43:00,
2013-05-18 08:53:00,50.0,49.0,-100.00,ESE,105,4.0,10.0,97,0.06,,,0.09,22.000000,,2013-05-18 13:53:00,
2013-05-18 09:03:00,50.0,49.0,-100.00,ESE,105,4.0,10.0,97,0.06,,,0.09,22.000000,,2013-05-18 14:03:00,
2013-05-18 09:10:00,51.0,50.0,-100.00,SE,125,3.0,9.0,97,0.01,,,0.10,43.000000,,2013-05-18 14:10:00,
2013-05-18 09:33:00,51.0,50.0,-100.00,SE,125,3.0,9.0,97,0.01,,,0.10,43.000000,,2013-05-18 14:33:00,
2013-05-18 09:42:00,51.0,50.0,-100.00,SE,125,3.0,9.0,97,0.01,,,0.10,43.000000,,2013-05-18 14:42:00,
2013-05-18 09:54:00,51.0,50.0,-100.00,SE,125,3.0,9.0,97,0.01,,,0.10,43.000000,,2013-05-18 14:54:00,
2013-05-18 10:03:00,51.0,50.0,-100.00,SE,125,3.0,9.0,97,0.01,,,0.10,43.000000,,2013-05-18 15:03:00,
2013-05-18 10:10:00,52.0,51.0,-100.00,East,93,3.0,8.0,96,0.02,,,0.12,43.000000,,2013-05-18 15:10:00,
2013-05-18 10:43:00,52.0,51.0,-100.00,East,93,3.0,8.0,96,0.02,,,0.12,43.000000,,2013-05-18 15:43:00,
2013-05-18 10:53:00,52.0,51.0,-100.00,East,93,3.0,8.0,96,0.02,,,0.12,43.000000,,2013-05-18 15:53:00,
2013-05-18 11:02:00,52.0,51.0,-100.00,East,93,3.0,8.0,96,0.02,,,0.12,43.000000,,2013-05-18 16:02:00,
2013-05-18 11:10:00,56.0,54.0,-100.00,SE,128,2.0,7.0,93,0.00,,,0.12,155.000000,,2013-05-18 16:10:00,
2013-05-18 11:33:00,56.0,54.0,-100.00,SE,128,2.0,7.0,93,0.00,,,0.12,155.000000,,2013-05-18 16:33:00,
2013-05-18 11:42:00,56.0,54.0,-100.00,SE,128,2.0,7.0,93,0.00,,,0.12,155.000000,,2013-05-18 16:42:00,
2013-05-18 11:52:00,56.0,54.0,-100.00,SE,128,2.0,7.0,93,0.00,,,0.12,155.000000,,2013-05-18 16:52:00,
2013-05-18 12:02:00,56.0,54.0,-100.00,SE,128,2.0,7.0,93,0.00,,,0.12,155.000000,,2013-05-18 17:02:00,
2013-05-18 12:10:00,58.0,55.0,-100.00,SE,137,3.0,6.0,89,0.00,,,0.12,159.000000,,2013-05-18 17:10:00,
2013-05-18 12:33:00,58.0,55.0,-100.00,SE,137,3.0,6.0,89,0.00,,,0.12,159.000000,,2013-05-18 17:33:00,
2013-05-18 12:42:00,58.0,55.0,-100.00,SE,137,3.0,6.0,89,0.00,,,0.12,159.000000,,2013-05-18 17:42:00,
2013-05-18 12:52:00,58.0,55.0,-100.00,SE,137,3.0,6.0,89,0.00,,,0.12,159.000000,,2013-05-18 17:52:00,
2013-05-18 13:01:00,58.0,55.0,-100.00,SE,137,3.0,6.0,89,0.00,,,0.12,159.000000,,2013-05-18 18:01:00,
2013-05-18 13:10:00,60.0,55.0,-100.00,SE,142,2.0,7.0,83,0.00,,,0.12,151.000000,,2013-05-18 18:10:00,
2013-05-18 13:42:00,60.0,55.0,-100.00,SE,142,2.0,7.0,83,0.00,,,0.12,151.000000,,2013-05-18 18:42:00,
2013-05-18 13:52:00,60.0,55.0,-100.00,SE,142,2.0,7.0,83,0.00,,,0.12,151.000000,,2013-05-18 18:52:00,
2013-05-18 14:02:00,60.0,55.0,-100.00,SE,142,2.0,7.0,83,0.00,,,0.12,151.000000,,2013-05-18 19:02:00,
2013-05-18 14:10:00,67.0,59.0,-100.00,SSE,147,4.0,9.0,76,0.00,,,0.12,291.000000,,2013-05-18 19:10:00,
2013-05-18 14:32:00,67.0,59.0,-100.00,SSE,147,4.0,9.0,76,0.00,,,0.12,291.000000,,2013-05-18 19:32:00,
2013-05-18 14:42:00,67.0,59.0,-100.00,SSE,147,4.0,9.0,76,0.00,,,0.12,291.000000,,2013-05-18 19:42:00,
2013-05-18 14:52:00,67.0,59.0,-100.00,SSE,147,4.0,9.0,76,0.00,,,0.12,291.000000,,2013-05-18 19:52:00,
2013-05-18 15:02:00,67.0,59.0,-100.00,SSE,147,4.0,9.0,76,0.00,,,0.12,291.000000,,2013-05-18 20:02:00,
2013-05-18 15:10:00,69.0,55.0,-100.00,SSE,155,6.0,13.0,61,0.00,,,0.12,402.000000,,2013-05-18 20:10:00,
2013-05-18 15:42:00,69.0,55.0,-100.00,SSE,155,6.0,13.0,61,0.00,,,0.12,402.000000,,2013-05-18 20:42:00,
2013-05-18 15:52:00,69.0,55.0,-100.00,SSE,155,6.0,13.0,61,0.00,,,0.12,402.000000,,2013-05-18 20:52:00,
2013-05-18 16:01:00,69.0,55.0,-100.00,SSE,155,6.0,13.0,61,0.00,,,0.12,402.000000,,2013-05-18 21:01:00,
2013-05-18 16:10:00,74.0,58.0,-100.00,SSE,160,5.0,12.0,58,0.00,,,0.12,316.000000,,2013-05-18 21:10:00,
2013-05-18 16:33:00,74.0,58.0,-100.00,SSE,160,5.0,12.0,58,0.00,,,0.12,316.000000,,2013-05-18 21:33:00,
2013-05-18 16:44:00,74.0,58.0,-100.00,SSE,160,5.0,12.0,58,0.00,,,0.12,316.000000,,2013-05-18 21:44:00,
2013-05-18 16:53:00,74.0,58.0,-100.00,SSE,160,5.0,12.0,58,0.00,,,0.12,316.000000,,2013-05-18 21:53:00,
2013-05-18 17:03:00,74.0,58.0,-100.00,SSE,160,5.0,12.0,58,0.00,,,0.12,316.000000,,2013-05-18 22:03:00,
2013-05-18 17:10:00,72.0,57.0,-100.00,South,187,6.0,15.0,59,0.00,,,0.12,325.000000,,2013-05-18 22:10:00,
2013-05-18 17:33:00,72.0,57.0,-100.00,South,187,6.0,15.0,59,0.00,,,0.12,325.000000,,2013-05-18 22:33:00,
2013-05-18 17:42:00,72.0,57.0,-100.00,South,187,6.0,15.0,59,0.00,,,0.12,325.000000,,2013-05-18 22:42:00,
2013-05-18 17:53:00,72.0,57.0,-100.00,South,187,6.0,15.0,59,0.00,,,0.12,325.000000,,2013-05-18 22:53:00,
2013-05-18 18:01:00,72.0,57.0,-100.00,South,187,6.0,15.0,59,0.00,,,0.12,325.000000,,2013-05-18 23:01:00,
2013-05-18 18:10:00,73.0,57.0,-100.00,South,183,7.0,14.0,57,0.00,,,0.12,224.000000,,2013-05-18 23:10:00,
2013-05-18 18:32:00,73.0,57.0,-100.00,South,183,7.0,14.0,57,0.00,,,0.12,224.000000,,2013-05-18 23:32:00,
2013-05-18 18:42:00,73.0,57.0,-100.00,South,183,7.0,14.0,57,0.00,,,0.12,224.000000,,2013-05-18 23:42:00,
2013-05-18 18:53:00,73.0,57.0,-100.00,South,183,7.0,14.0,57,0.00,,,0.12,224.000000,,2013-05-18 23:53:00,
2013-05-18 19:01:00,73.0,57.0,-100.00,South,183,7.0,14.0,57,0.00,,,0.12,224.000000,,2013-05-19 00:01:00,
2013-05-18 20:10:00,67.0,58.0,-100.00,South,183,2.0,7.0,74,-99.99,,,0.12,30.000000,,2013-05-19 01:10:00,
2013-05-18 20:42:00,67.0,58.0,-100.00,South,183,2.0,7.0,74,-99.99,,,0.12,30.000000,,2013-05-19 01:42:00,
2013-05-18 20:52:00,67.0,58.0,-100.00,South,183,2.0,7.0,74,-99.99,,,0.12,30.000000,,2013-05-19 01:52:00,
2013-05-18 21:01:00,67.0,58.0,-100.00,South,183,2.0,7.0,74,-99.99,,,0.12,30.000000,,2013-05-19 02:01:00,
2013-05-18 21:10:00,64.0,59.0,-100.00,South,183,1.0,4.0,84,0.00,,,0.12,2.000000,,2013-05-19 02:10:00,
2013-05-18 21:42:00,64.0,59.0,-100.00,South,183,1.0,4.0,84,0.00,,,0.12,2.000000,,2013-05-19 02:42:00,
2013-05-18 21:52:00,64.0,59.0,-100.00,South,183,1.0,4.0,84,0.00,,,0.12,2.000000,,2013-05-19 02:52:00,
2013-05-18 22:01:00,64.0,59.0,-100.00,South,183,1.0,4.0,84,0.00,,,0.12,2.000000,,2013-05-19 03:01:00,
2013-05-18 22:10:00,63.0,60.0,-100.00,SSW,196,1.0,5.0,89,0.00,,,0.12,0.000000,,2013-05-19 03:10:00,
2013-05-18 22:43:00,63.0,60.0,-100.00,SSW,196,1.0,5.0,89,0.00,,,0.12,0.000000,,2013-05-19 03:43:00,
2013-05-18 22:53:00,63.0,60.0,-100.00,SSW,196,1.0,5.0,89,0.00,,,0.12,0.000000,,2013-05-19 03:53:00,
2013-05-18 23:02:00,63.0,60.0,-100.00,SSW,196,1.0,5.0,89,0.00,,,0.12,0.000000,,2013-05-19 04:02:00,
2013-05-18 23:10:00,63.0,60.0,-100.00,ESE,110,2.0,5.0,90,0.00,,,0.12,0.000000,,2013-05-19 04:10:00,
2013-05-18 23:33:00,63.0,60.0,-100.00,ESE,110,2.0,5.0,90,0.00,,,0.12,0.000000,,2013-05-19 04:33:00,
2013-05-18 23:42:00,63.0,60.0,-100.00,ESE,110,2.0,5.0,90,0.00,,,0.12,0.000000,,2013-05-19 04:42:00,
2013-05-18 23:53:00,63.0,60.0,-100.00,ESE,110,2.0,5.0,90,0.00,,,0.12,0.000000,,2013-05-19 04:53:00,